sensor_id;sensor_type;location;lat;lon;timestamp;P1;durP1;ratioP1;P2;durP2;ratioP2
16522;SDS011;19889;52.546;13.348;2022-12-05T00:01:32;81.07;;;28.30;;
16522;SDS011;19889;52.546;13.348;2022-12-05T00:04:01;83.67;;;29.77;;
16522;SDS011;19889;52.546;13.348;2022-12-05T00:06:31;81.40;;;27.57;;
16522;SDS011;19889;52.546;13.348;2022-12-05T00:08:59;75.93;;;26.13;;
16522;SDS011;19889;52.546;13.348;2022-12-05T00:11:28;73.93;;;26.87;;
16522;SDS011;19889;52.546;13.348;2022-12-05T00:13:56;74.47;;;28.53;;
16522;SDS011;19889;52.546;13.348;2022-12-05T00:16:25;73.53;;;26.57;;
16522;SDS011;19889;52.546;13.348;2022-12-05T00:18:54;77.47;;;27.77;;
16522;SDS011;19889;52.546;13.348;2022-12-05T00:21:22;75.70;;;28.50;;
16522;SDS011;19889;52.546;13.348;2022-12-05T00:23:52;82.83;;;29.33;;
16522;SDS011;19889;52.546;13.348;2022-12-05T00:26:21;84.53;;;29.13;;
16522;SDS011;19889;52.546;13.348;2022-12-05T00:28:49;74.97;;;28.00;;
16522;SDS011;19889;52.546;13.348;2022-12-05T00:31:17;87.37;;;29.43;;
16522;SDS011;19889;52.546;13.348;2022-12-05T00:33:46;69.10;;;25.77;;
16522;SDS011;19889;52.546;13.348;2022-12-05T00:36:14;82.30;;;28.23;;
16522;SDS011;19889;52.546;13.348;2022-12-05T00:38:43;73.63;;;29.90;;
16522;SDS011;19889;52.546;13.348;2022-12-05T00:41:13;82.87;;;28.73;;
16522;SDS011;19889;52.546;13.348;2022-12-05T00:43:42;73.43;;;27.50;;
16522;SDS011;19889;52.546;13.348;2022-12-05T00:46:10;80.53;;;29.63;;
16522;SDS011;19889;52.546;13.348;2022-12-05T00:48:38;77.47;;;30.07;;
16522;SDS011;19889;52.546;13.348;2022-12-05T00:51:07;77.17;;;28.47;;
16522;SDS011;19889;52.546;13.348;2022-12-05T00:53:35;80.93;;;28.37;;
16522;SDS011;19889;52.546;13.348;2022-12-05T00:56:03;82.43;;;29.17;;
16522;SDS011;19889;52.546;13.348;2022-12-05T00:58:33;65.67;;;26.17;;
16522;SDS011;19889;52.546;13.348;2022-12-05T01:01:04;65.57;;;26.73;;
16522;SDS011;19889;52.546;13.348;2022-12-05T01:03:32;80.63;;;27.30;;
16522;SDS011;19889;52.546;13.348;2022-12-05T01:05:59;75.13;;;29.33;;
16522;SDS011;19889;52.546;13.348;2022-12-05T01:08:26;73.93;;;27.83;;
16522;SDS011;19889;52.546;13.348;2022-12-05T01:10:54;75.80;;;28.00;;
16522;SDS011;19889;52.546;13.348;2022-12-05T01:13:21;73.10;;;29.90;;
16522;SDS011;19889;52.546;13.348;2022-12-05T01:15:49;72.03;;;26.67;;
16522;SDS011;19889;52.546;13.348;2022-12-05T01:18:17;71.57;;;28.00;;
16522;SDS011;19889;52.546;13.348;2022-12-05T01:20:45;71.57;;;27.83;;
16522;SDS011;19889;52.546;13.348;2022-12-05T01:23:12;76.97;;;28.00;;
16522;SDS011;19889;52.546;13.348;2022-12-05T01:25:39;69.87;;;27.90;;
16522;SDS011;19889;52.546;13.348;2022-12-05T01:28:08;69.93;;;27.77;;
16522;SDS011;19889;52.546;13.348;2022-12-05T01:30:36;77.93;;;28.73;;
16522;SDS011;19889;52.546;13.348;2022-12-05T01:33:05;74.13;;;27.93;;
16522;SDS011;19889;52.546;13.348;2022-12-05T01:35:32;74.00;;;28.87;;
16522;SDS011;19889;52.546;13.348;2022-12-05T01:38:00;74.07;;;30.00;;
16522;SDS011;19889;52.546;13.348;2022-12-05T01:40:28;73.13;;;27.77;;
16522;SDS011;19889;52.546;13.348;2022-12-05T01:42:55;81.00;;;29.50;;
16522;SDS011;19889;52.546;13.348;2022-12-05T01:45:23;69.63;;;27.77;;
16522;SDS011;19889;52.546;13.348;2022-12-05T01:47:57;78.53;;;27.27;;
16522;SDS011;19889;52.546;13.348;2022-12-05T01:50:26;74.33;;;28.40;;
16522;SDS011;19889;52.546;13.348;2022-12-05T01:52:53;75.80;;;30.13;;
16522;SDS011;19889;52.546;13.348;2022-12-05T01:55:20;82.87;;;30.70;;
16522;SDS011;19889;52.546;13.348;2022-12-05T01:57:47;89.70;;;30.43;;
16522;SDS011;19889;52.546;13.348;2022-12-05T02:00:16;76.37;;;28.93;;
16522;SDS011;19889;52.546;13.348;2022-12-05T02:02:45;74.40;;;27.83;;
16522;SDS011;19889;52.546;13.348;2022-12-05T02:05:19;76.03;;;29.90;;
16522;SDS011;19889;52.546;13.348;2022-12-05T02:07:49;68.73;;;28.33;;
16522;SDS011;19889;52.546;13.348;2022-12-05T02:10:18;71.90;;;28.13;;
16522;SDS011;19889;52.546;13.348;2022-12-05T02:12:45;84.07;;;29.37;;
16522;SDS011;19889;52.546;13.348;2022-12-05T02:15:21;80.50;;;29.40;;
16522;SDS011;19889;52.546;13.348;2022-12-05T02:18:06;68.73;;;28.67;;
16522;SDS011;19889;52.546;13.348;2022-12-05T02:20:55;83.53;;;30.40;;
16522;SDS011;19889;52.546;13.348;2022-12-05T02:23:41;75.27;;;28.43;;
16522;SDS011;19889;52.546;13.348;2022-12-05T02:29:41;78.93;;;29.40;;
16522;SDS011;19889;52.546;13.348;2022-12-05T02:32:22;70.50;;;26.30;;
16522;SDS011;19889;52.546;13.348;2022-12-05T02:34:58;68.97;;;27.50;;
16522;SDS011;19889;52.546;13.348;2022-12-05T02:37:30;74.30;;;28.33;;
16522;SDS011;19889;52.546;13.348;2022-12-05T02:40:04;73.30;;;28.87;;
16522;SDS011;19889;52.546;13.348;2022-12-05T02:42:38;78.43;;;26.97;;
16522;SDS011;19889;52.546;13.348;2022-12-05T02:45:12;72.40;;;28.03;;
16522;SDS011;19889;52.546;13.348;2022-12-05T02:47:42;69.67;;;27.37;;
16522;SDS011;19889;52.546;13.348;2022-12-05T02:50:13;73.33;;;28.00;;
16522;SDS011;19889;52.546;13.348;2022-12-05T02:52:43;78.87;;;28.53;;
16522;SDS011;19889;52.546;13.348;2022-12-05T02:55:14;71.77;;;27.30;;
16522;SDS011;19889;52.546;13.348;2022-12-05T02:57:44;75.83;;;26.93;;
16522;SDS011;19889;52.546;13.348;2022-12-05T03:00:16;66.00;;;25.43;;
16522;SDS011;19889;52.546;13.348;2022-12-05T03:02:44;64.93;;;25.23;;
16522;SDS011;19889;52.546;13.348;2022-12-05T03:05:13;75.83;;;27.67;;
16522;SDS011;19889;52.546;13.348;2022-12-05T03:07:47;64.87;;;26.57;;
16522;SDS011;19889;52.546;13.348;2022-12-05T03:10:18;63.70;;;25.00;;
16522;SDS011;19889;52.546;13.348;2022-12-05T03:12:49;66.97;;;26.43;;
16522;SDS011;19889;52.546;13.348;2022-12-05T03:15:21;64.87;;;25.30;;
16522;SDS011;19889;52.546;13.348;2022-12-05T03:17:52;63.87;;;26.23;;
16522;SDS011;19889;52.546;13.348;2022-12-05T03:20:24;58.77;;;24.97;;
16522;SDS011;19889;52.546;13.348;2022-12-05T03:22:55;60.00;;;24.97;;
16522;SDS011;19889;52.546;13.348;2022-12-05T03:25:29;61.93;;;24.37;;
16522;SDS011;19889;52.546;13.348;2022-12-05T03:28:02;64.07;;;25.33;;
16522;SDS011;19889;52.546;13.348;2022-12-05T03:30:37;59.33;;;23.03;;
16522;SDS011;19889;52.546;13.348;2022-12-05T03:33:04;56.40;;;22.93;;
16522;SDS011;19889;52.546;13.348;2022-12-05T03:35:38;50.73;;;22.20;;
16522;SDS011;19889;52.546;13.348;2022-12-05T03:38:09;51.67;;;22.87;;
16522;SDS011;19889;52.546;13.348;2022-12-05T03:40:39;49.57;;;22.60;;
16522;SDS011;19889;52.546;13.348;2022-12-05T03:43:12;47.07;;;20.47;;
16522;SDS011;19889;52.546;13.348;2022-12-05T03:45:46;45.27;;;21.50;;
16522;SDS011;19889;52.546;13.348;2022-12-05T03:48:17;52.07;;;22.33;;
16522;SDS011;19889;52.546;13.348;2022-12-05T03:50:51;45.83;;;20.60;;
16522;SDS011;19889;52.546;13.348;2022-12-05T03:53:21;51.73;;;20.80;;
16522;SDS011;19889;52.546;13.348;2022-12-05T03:55:53;43.50;;;20.10;;
16522;SDS011;19889;52.546;13.348;2022-12-05T03:58:27;49.20;;;20.97;;
16522;SDS011;19889;52.546;13.348;2022-12-05T04:00:59;52.13;;;21.87;;
16522;SDS011;19889;52.546;13.348;2022-12-05T04:03:28;42.40;;;20.30;;
16522;SDS011;19889;52.546;13.348;2022-12-05T04:06:04;46.47;;;20.33;;
16522;SDS011;19889;52.546;13.348;2022-12-05T04:08:37;48.70;;;21.07;;
16522;SDS011;19889;52.546;13.348;2022-12-05T04:11:09;46.67;;;20.93;;
16522;SDS011;19889;52.546;13.348;2022-12-05T04:13:40;44.40;;;19.67;;
16522;SDS011;19889;52.546;13.348;2022-12-05T04:16:11;48.47;;;21.10;;
16522;SDS011;19889;52.546;13.348;2022-12-05T04:19:00;48.53;;;20.83;;
16522;SDS011;19889;52.546;13.348;2022-12-05T04:21:39;46.53;;;20.37;;
16522;SDS011;19889;52.546;13.348;2022-12-05T04:24:09;51.20;;;20.90;;
16522;SDS011;19889;52.546;13.348;2022-12-05T04:27:03;50.60;;;20.30;;
16522;SDS011;19889;52.546;13.348;2022-12-05T04:29:36;46.27;;;21.30;;
16522;SDS011;19889;52.546;13.348;2022-12-05T04:32:12;46.30;;;20.17;;
16522;SDS011;19889;52.546;13.348;2022-12-05T04:34:40;49.60;;;20.93;;
16522;SDS011;19889;52.546;13.348;2022-12-05T04:37:11;42.23;;;19.10;;
16522;SDS011;19889;52.546;13.348;2022-12-05T04:39:43;47.20;;;20.87;;
16522;SDS011;19889;52.546;13.348;2022-12-05T04:42:14;43.33;;;19.27;;
16522;SDS011;19889;52.546;13.348;2022-12-05T04:44:45;60.03;;;27.30;;
16522;SDS011;19889;52.546;13.348;2022-12-05T04:47:17;52.27;;;23.60;;
16522;SDS011;19889;52.546;13.348;2022-12-05T04:49:46;45.73;;;21.20;;
16522;SDS011;19889;52.546;13.348;2022-12-05T04:52:14;45.63;;;22.10;;
16522;SDS011;19889;52.546;13.348;2022-12-05T04:54:42;45.67;;;20.20;;
16522;SDS011;19889;52.546;13.348;2022-12-05T04:57:13;51.73;;;21.77;;
16522;SDS011;19889;52.546;13.348;2022-12-05T04:59:44;47.97;;;21.23;;
16522;SDS011;19889;52.546;13.348;2022-12-05T05:02:12;42.23;;;20.43;;
16522;SDS011;19889;52.546;13.348;2022-12-05T05:04:45;40.67;;;18.47;;
16522;SDS011;19889;52.546;13.348;2022-12-05T05:07:15;38.93;;;19.40;;
16522;SDS011;19889;52.546;13.348;2022-12-05T05:09:42;44.53;;;20.70;;
16522;SDS011;19889;52.546;13.348;2022-12-05T05:12:10;50.50;;;24.20;;
16522;SDS011;19889;52.546;13.348;2022-12-05T05:14:37;45.07;;;19.30;;
16522;SDS011;19889;52.546;13.348;2022-12-05T05:17:04;41.93;;;18.03;;
16522;SDS011;19889;52.546;13.348;2022-12-05T05:19:31;35.10;;;18.13;;
16522;SDS011;19889;52.546;13.348;2022-12-05T05:21:59;39.60;;;17.93;;
16522;SDS011;19889;52.546;13.348;2022-12-05T05:24:26;36.00;;;17.17;;
16522;SDS011;19889;52.546;13.348;2022-12-05T05:26:53;44.63;;;19.07;;
16522;SDS011;19889;52.546;13.348;2022-12-05T05:29:20;38.00;;;18.10;;
16522;SDS011;19889;52.546;13.348;2022-12-05T05:31:47;37.10;;;17.30;;
16522;SDS011;19889;52.546;13.348;2022-12-05T05:34:14;37.93;;;17.83;;
16522;SDS011;19889;52.546;13.348;2022-12-05T05:36:41;32.33;;;16.90;;
16522;SDS011;19889;52.546;13.348;2022-12-05T05:39:13;50.70;;;22.90;;
16522;SDS011;19889;52.546;13.348;2022-12-05T05:41:41;37.57;;;18.40;;
16522;SDS011;19889;52.546;13.348;2022-12-05T05:44:08;32.23;;;15.50;;
16522;SDS011;19889;52.546;13.348;2022-12-05T05:46:35;33.63;;;16.17;;
16522;SDS011;19889;52.546;13.348;2022-12-05T05:49:02;32.87;;;16.20;;
16522;SDS011;19889;52.546;13.348;2022-12-05T05:51:30;28.17;;;15.37;;
16522;SDS011;19889;52.546;13.348;2022-12-05T05:53:57;28.10;;;15.30;;
16522;SDS011;19889;52.546;13.348;2022-12-05T05:56:26;28.63;;;14.27;;
16522;SDS011;19889;52.546;13.348;2022-12-05T05:58:54;26.10;;;14.63;;
16522;SDS011;19889;52.546;13.348;2022-12-05T06:01:22;28.33;;;14.53;;
16522;SDS011;19889;52.546;13.348;2022-12-05T06:03:50;23.73;;;12.60;;
16522;SDS011;19889;52.546;13.348;2022-12-05T06:06:17;25.00;;;13.33;;
16522;SDS011;19889;52.546;13.348;2022-12-05T06:08:45;27.77;;;13.30;;
16522;SDS011;19889;52.546;13.348;2022-12-05T06:11:12;22.63;;;12.30;;
16522;SDS011;19889;52.546;13.348;2022-12-05T06:13:42;21.27;;;12.27;;
16522;SDS011;19889;52.546;13.348;2022-12-05T06:16:10;25.13;;;12.47;;
16522;SDS011;19889;52.546;13.348;2022-12-05T06:18:39;22.30;;;13.03;;
16522;SDS011;19889;52.546;13.348;2022-12-05T06:21:06;25.13;;;11.83;;
16522;SDS011;19889;52.546;13.348;2022-12-05T06:23:34;21.67;;;11.80;;
16522;SDS011;19889;52.546;13.348;2022-12-05T06:26:02;44.07;;;24.03;;
16522;SDS011;19889;52.546;13.348;2022-12-05T06:28:29;24.83;;;12.07;;
16522;SDS011;19889;52.546;13.348;2022-12-05T06:30:58;23.23;;;11.23;;
16522;SDS011;19889;52.546;13.348;2022-12-05T06:33:27;19.43;;;11.43;;
16522;SDS011;19889;52.546;13.348;2022-12-05T06:36:00;19.57;;;11.10;;
16522;SDS011;19889;52.546;13.348;2022-12-05T06:38:29;20.50;;;11.40;;
16522;SDS011;19889;52.546;13.348;2022-12-05T06:40:56;20.03;;;11.30;;
16522;SDS011;19889;52.546;13.348;2022-12-05T06:43:23;20.73;;;12.20;;
16522;SDS011;19889;52.546;13.348;2022-12-05T06:45:50;23.50;;;11.43;;
16522;SDS011;19889;52.546;13.348;2022-12-05T06:48:18;23.73;;;12.70;;
16522;SDS011;19889;52.546;13.348;2022-12-05T06:50:49;34.87;;;20.73;;
16522;SDS011;19889;52.546;13.348;2022-12-05T06:53:16;20.57;;;12.50;;
16522;SDS011;19889;52.546;13.348;2022-12-05T06:55:43;19.73;;;11.77;;
16522;SDS011;19889;52.546;13.348;2022-12-05T06:58:19;21.13;;;10.90;;
16522;SDS011;19889;52.546;13.348;2022-12-05T07:00:46;21.57;;;11.67;;
16522;SDS011;19889;52.546;13.348;2022-12-05T07:03:32;21.03;;;11.27;;
16522;SDS011;19889;52.546;13.348;2022-12-05T07:05:59;19.63;;;11.57;;
16522;SDS011;19889;52.546;13.348;2022-12-05T07:08:26;23.80;;;12.47;;
16522;SDS011;19889;52.546;13.348;2022-12-05T07:10:54;20.70;;;12.40;;
16522;SDS011;19889;52.546;13.348;2022-12-05T07:13:21;19.67;;;11.60;;
16522;SDS011;19889;52.546;13.348;2022-12-05T07:15:48;22.67;;;12.97;;
16522;SDS011;19889;52.546;13.348;2022-12-05T07:18:17;23.43;;;12.50;;
16522;SDS011;19889;52.546;13.348;2022-12-05T07:20:54;21.47;;;11.37;;
16522;SDS011;19889;52.546;13.348;2022-12-05T07:23:22;38.37;;;19.77;;
16522;SDS011;19889;52.546;13.348;2022-12-05T07:25:48;24.33;;;13.43;;
16522;SDS011;19889;52.546;13.348;2022-12-05T07:28:15;33.37;;;17.10;;
16522;SDS011;19889;52.546;13.348;2022-12-05T07:30:42;25.00;;;15.47;;
16522;SDS011;19889;52.546;13.348;2022-12-05T07:33:09;32.23;;;17.60;;
16522;SDS011;19889;52.546;13.348;2022-12-05T07:35:36;22.80;;;12.50;;
16522;SDS011;19889;52.546;13.348;2022-12-05T07:38:04;23.03;;;11.97;;
16522;SDS011;19889;52.546;13.348;2022-12-05T07:40:31;18.73;;;11.63;;
16522;SDS011;19889;52.546;13.348;2022-12-05T07:42:58;21.27;;;12.30;;
16522;SDS011;19889;52.546;13.348;2022-12-05T07:45:25;23.53;;;12.47;;
16522;SDS011;19889;52.546;13.348;2022-12-05T07:47:52;24.00;;;12.13;;
16522;SDS011;19889;52.546;13.348;2022-12-05T07:50:19;27.57;;;12.80;;
16522;SDS011;19889;52.546;13.348;2022-12-05T07:52:46;23.27;;;12.57;;
16522;SDS011;19889;52.546;13.348;2022-12-05T07:55:14;20.27;;;12.40;;
16522;SDS011;19889;52.546;13.348;2022-12-05T07:57:41;43.03;;;23.13;;
16522;SDS011;19889;52.546;13.348;2022-12-05T08:00:09;21.40;;;12.70;;
16522;SDS011;19889;52.546;13.348;2022-12-05T08:02:39;19.63;;;12.00;;
16522;SDS011;19889;52.546;13.348;2022-12-05T08:05:06;18.27;;;11.20;;
16522;SDS011;19889;52.546;13.348;2022-12-05T08:07:33;24.27;;;13.57;;
16522;SDS011;19889;52.546;13.348;2022-12-05T08:10:00;28.53;;;14.43;;
16522;SDS011;19889;52.546;13.348;2022-12-05T08:12:28;21.73;;;11.87;;
16522;SDS011;19889;52.546;13.348;2022-12-05T08:14:55;19.87;;;11.30;;
16522;SDS011;19889;52.546;13.348;2022-12-05T08:17:22;19.67;;;12.30;;
16522;SDS011;19889;52.546;13.348;2022-12-05T08:19:50;17.90;;;10.50;;
16522;SDS011;19889;52.546;13.348;2022-12-05T08:22:17;19.80;;;10.97;;
16522;SDS011;19889;52.546;13.348;2022-12-05T08:24:44;19.70;;;11.03;;
16522;SDS011;19889;52.546;13.348;2022-12-05T08:27:11;21.60;;;11.37;;
16522;SDS011;19889;52.546;13.348;2022-12-05T08:29:39;21.83;;;11.50;;
16522;SDS011;19889;52.546;13.348;2022-12-05T08:32:06;18.20;;;11.13;;
16522;SDS011;19889;52.546;13.348;2022-12-05T08:34:34;27.07;;;15.07;;
16522;SDS011;19889;52.546;13.348;2022-12-05T08:37:01;23.67;;;14.13;;
16522;SDS011;19889;52.546;13.348;2022-12-05T08:39:28;20.23;;;11.33;;
16522;SDS011;19889;52.546;13.348;2022-12-05T08:41:56;19.77;;;10.83;;
16522;SDS011;19889;52.546;13.348;2022-12-05T08:44:23;22.30;;;12.27;;
16522;SDS011;19889;52.546;13.348;2022-12-05T08:46:51;21.97;;;10.97;;
16522;SDS011;19889;52.546;13.348;2022-12-05T08:49:18;20.47;;;12.17;;
16522;SDS011;19889;52.546;13.348;2022-12-05T08:51:45;18.30;;;11.50;;
16522;SDS011;19889;52.546;13.348;2022-12-05T08:54:12;22.27;;;12.37;;
16522;SDS011;19889;52.546;13.348;2022-12-05T08:56:39;22.63;;;12.17;;
16522;SDS011;19889;52.546;13.348;2022-12-05T08:59:06;23.43;;;12.57;;
16522;SDS011;19889;52.546;13.348;2022-12-05T09:01:34;22.87;;;12.53;;
16522;SDS011;19889;52.546;13.348;2022-12-05T09:04:04;27.17;;;15.47;;
16522;SDS011;19889;52.546;13.348;2022-12-05T09:06:32;24.53;;;13.23;;
16522;SDS011;19889;52.546;13.348;2022-12-05T09:09:00;23.53;;;13.80;;
16522;SDS011;19889;52.546;13.348;2022-12-05T09:11:30;32.53;;;15.87;;
16522;SDS011;19889;52.546;13.348;2022-12-05T09:13:59;29.60;;;13.93;;
16522;SDS011;19889;52.546;13.348;2022-12-05T09:16:27;42.70;;;16.17;;
16522;SDS011;19889;52.546;13.348;2022-12-05T09:18:56;63.80;;;21.30;;
16522;SDS011;19889;52.546;13.348;2022-12-05T09:21:25;43.97;;;20.00;;
16522;SDS011;19889;52.546;13.348;2022-12-05T09:23:54;20.67;;;12.20;;
16522;SDS011;19889;52.546;13.348;2022-12-05T09:26:24;20.60;;;13.57;;
16522;SDS011;19889;52.546;13.348;2022-12-05T09:28:52;19.83;;;10.73;;
16522;SDS011;19889;52.546;13.348;2022-12-05T09:31:20;20.53;;;11.47;;
16522;SDS011;19889;52.546;13.348;2022-12-05T09:33:48;20.50;;;12.97;;
16522;SDS011;19889;52.546;13.348;2022-12-05T09:36:17;18.33;;;11.30;;
16522;SDS011;19889;52.546;13.348;2022-12-05T09:38:47;19.40;;;12.27;;
16522;SDS011;19889;52.546;13.348;2022-12-05T09:41:17;22.07;;;11.87;;
16522;SDS011;19889;52.546;13.348;2022-12-05T09:44:08;19.80;;;11.80;;
16522;SDS011;19889;52.546;13.348;2022-12-05T09:46:42;18.90;;;11.43;;
16522;SDS011;19889;52.546;13.348;2022-12-05T09:49:17;21.30;;;11.53;;
16522;SDS011;19889;52.546;13.348;2022-12-05T09:51:45;19.60;;;11.73;;
16522;SDS011;19889;52.546;13.348;2022-12-05T09:54:17;21.43;;;11.73;;
16522;SDS011;19889;52.546;13.348;2022-12-05T09:56:45;22.80;;;12.57;;
16522;SDS011;19889;52.546;13.348;2022-12-05T09:59:15;20.77;;;11.90;;
16522;SDS011;19889;52.546;13.348;2022-12-05T10:01:45;23.63;;;13.63;;
16522;SDS011;19889;52.546;13.348;2022-12-05T10:04:28;22.37;;;12.50;;
16522;SDS011;19889;52.546;13.348;2022-12-05T10:07:12;18.10;;;11.83;;
16522;SDS011;19889;52.546;13.348;2022-12-05T10:09:50;23.87;;;11.60;;
16522;SDS011;19889;52.546;13.348;2022-12-05T10:12:36;21.03;;;12.07;;
16522;SDS011;19889;52.546;13.348;2022-12-05T10:15:12;19.57;;;11.40;;
16522;SDS011;19889;52.546;13.348;2022-12-05T10:17:43;21.93;;;12.20;;
16522;SDS011;19889;52.546;13.348;2022-12-05T10:20:16;20.37;;;11.00;;
16522;SDS011;19889;52.546;13.348;2022-12-05T10:22:47;15.63;;;10.53;;
16522;SDS011;19889;52.546;13.348;2022-12-05T10:25:20;20.73;;;11.53;;
16522;SDS011;19889;52.546;13.348;2022-12-05T10:27:51;30.20;;;17.00;;
16522;SDS011;19889;52.546;13.348;2022-12-05T10:30:22;28.83;;;16.23;;
16522;SDS011;19889;52.546;13.348;2022-12-05T10:32:50;24.03;;;14.73;;
16522;SDS011;19889;52.546;13.348;2022-12-05T10:35:21;20.03;;;11.77;;
16522;SDS011;19889;52.546;13.348;2022-12-05T10:37:50;17.87;;;10.67;;
16522;SDS011;19889;52.546;13.348;2022-12-05T10:40:22;16.30;;;10.87;;
16522;SDS011;19889;52.546;13.348;2022-12-05T10:42:50;24.00;;;11.97;;
16522;SDS011;19889;52.546;13.348;2022-12-05T10:45:18;18.60;;;12.47;;
16522;SDS011;19889;52.546;13.348;2022-12-05T10:47:47;23.33;;;12.67;;
16522;SDS011;19889;52.546;13.348;2022-12-05T10:50:20;22.20;;;12.77;;
16522;SDS011;19889;52.546;13.348;2022-12-05T10:52:50;20.43;;;11.57;;
16522;SDS011;19889;52.546;13.348;2022-12-05T10:55:18;20.40;;;12.30;;
16522;SDS011;19889;52.546;13.348;2022-12-05T10:57:50;17.90;;;11.17;;
16522;SDS011;19889;52.546;13.348;2022-12-05T11:00:33;18.63;;;11.33;;
16522;SDS011;19889;52.546;13.348;2022-12-05T11:03:00;22.63;;;11.97;;
16522;SDS011;19889;52.546;13.348;2022-12-05T11:05:30;17.63;;;10.50;;
16522;SDS011;19889;52.546;13.348;2022-12-05T11:07:58;16.47;;;10.33;;
16522;SDS011;19889;52.546;13.348;2022-12-05T11:10:26;22.07;;;12.20;;
16522;SDS011;19889;52.546;13.348;2022-12-05T11:12:59;23.43;;;14.20;;
16522;SDS011;19889;52.546;13.348;2022-12-05T11:15:27;25.57;;;13.57;;
16522;SDS011;19889;52.546;13.348;2022-12-05T11:17:55;23.30;;;12.73;;
16522;SDS011;19889;52.546;13.348;2022-12-05T11:20:33;23.37;;;13.90;;
16522;SDS011;19889;52.546;13.348;2022-12-05T11:23:14;18.27;;;11.40;;
16522;SDS011;19889;52.546;13.348;2022-12-05T11:25:46;19.87;;;12.07;;
16522;SDS011;19889;52.546;13.348;2022-12-05T11:31:02;18.73;;;10.73;;
16522;SDS011;19889;52.546;13.348;2022-12-05T11:33:31;19.83;;;12.57;;
16522;SDS011;19889;52.546;13.348;2022-12-05T11:36:02;21.97;;;12.33;;
16522;SDS011;19889;52.546;13.348;2022-12-05T11:38:35;23.10;;;12.50;;
16522;SDS011;19889;52.546;13.348;2022-12-05T11:41:10;18.93;;;11.10;;
16522;SDS011;19889;52.546;13.348;2022-12-05T11:43:55;19.37;;;11.97;;
16522;SDS011;19889;52.546;13.348;2022-12-05T11:46:32;19.90;;;12.37;;
16522;SDS011;19889;52.546;13.348;2022-12-05T11:49:16;20.40;;;11.27;;
16522;SDS011;19889;52.546;13.348;2022-12-05T11:52:00;31.97;;;12.67;;
16522;SDS011;19889;52.546;13.348;2022-12-05T11:54:48;28.07;;;13.33;;
16522;SDS011;19889;52.546;13.348;2022-12-05T11:57:33;25.97;;;12.57;;
16522;SDS011;19889;52.546;13.348;2022-12-05T12:00:31;20.70;;;12.57;;
16522;SDS011;19889;52.546;13.348;2022-12-05T12:03:17;23.73;;;12.67;;
16522;SDS011;19889;52.546;13.348;2022-12-05T12:06:00;22.30;;;13.30;;
16522;SDS011;19889;52.546;13.348;2022-12-05T12:08:42;19.17;;;11.43;;
16522;SDS011;19889;52.546;13.348;2022-12-05T12:11:20;17.73;;;11.67;;
16522;SDS011;19889;52.546;13.348;2022-12-05T12:13:55;22.87;;;12.50;;
16522;SDS011;19889;52.546;13.348;2022-12-05T12:16:32;25.57;;;13.37;;
16522;SDS011;19889;52.546;13.348;2022-12-05T12:19:12;22.73;;;12.77;;
16522;SDS011;19889;52.546;13.348;2022-12-05T12:21:54;20.63;;;13.00;;
16522;SDS011;19889;52.546;13.348;2022-12-05T12:24:34;25.70;;;12.93;;
16522;SDS011;19889;52.546;13.348;2022-12-05T12:27:14;22.07;;;13.50;;
16522;SDS011;19889;52.546;13.348;2022-12-05T12:29:55;24.83;;;13.17;;
16522;SDS011;19889;52.546;13.348;2022-12-05T12:32:32;19.00;;;12.73;;
16522;SDS011;19889;52.546;13.348;2022-12-05T12:37:56;24.67;;;13.50;;
16522;SDS011;19889;52.546;13.348;2022-12-05T12:40:45;23.40;;;12.83;;
16522;SDS011;19889;52.546;13.348;2022-12-05T12:43:18;29.50;;;14.47;;
16522;SDS011;19889;52.546;13.348;2022-12-05T12:46:01;27.07;;;13.43;;
16522;SDS011;19889;52.546;13.348;2022-12-05T12:48:42;26.77;;;14.47;;
16522;SDS011;19889;52.546;13.348;2022-12-05T12:51:18;28.03;;;15.07;;
16522;SDS011;19889;52.546;13.348;2022-12-05T12:53:58;29.43;;;14.97;;
16522;SDS011;19889;52.546;13.348;2022-12-05T12:56:35;34.80;;;17.60;;
16522;SDS011;19889;52.546;13.348;2022-12-05T12:59:15;34.83;;;18.27;;
16522;SDS011;19889;52.546;13.348;2022-12-05T13:01:56;37.53;;;20.77;;
16522;SDS011;19889;52.546;13.348;2022-12-05T13:04:30;25.43;;;14.60;;
16522;SDS011;19889;52.546;13.348;2022-12-05T13:07:04;32.33;;;17.07;;
16522;SDS011;19889;52.546;13.348;2022-12-05T13:09:38;34.50;;;20.10;;
16522;SDS011;19889;52.546;13.348;2022-12-05T13:12:09;35.63;;;18.00;;
16522;SDS011;19889;52.546;13.348;2022-12-05T13:14:40;30.83;;;16.90;;
16522;SDS011;19889;52.546;13.348;2022-12-05T13:17:15;33.87;;;16.23;;
16522;SDS011;19889;52.546;13.348;2022-12-05T13:19:47;27.83;;;15.43;;
16522;SDS011;19889;52.546;13.348;2022-12-05T13:22:15;32.83;;;15.37;;
16522;SDS011;19889;52.546;13.348;2022-12-05T13:24:44;27.23;;;15.17;;
16522;SDS011;19889;52.546;13.348;2022-12-05T13:27:13;28.63;;;15.03;;
16522;SDS011;19889;52.546;13.348;2022-12-05T13:29:46;29.13;;;16.47;;
16522;SDS011;19889;52.546;13.348;2022-12-05T13:32:23;31.97;;;16.07;;
16522;SDS011;19889;52.546;13.348;2022-12-05T13:34:57;29.70;;;15.90;;
16522;SDS011;19889;52.546;13.348;2022-12-05T13:37:26;33.77;;;15.80;;
16522;SDS011;19889;52.546;13.348;2022-12-05T13:40:23;29.37;;;17.37;;
16522;SDS011;19889;52.546;13.348;2022-12-05T13:43:11;29.93;;;17.17;;
16522;SDS011;19889;52.546;13.348;2022-12-05T13:45:40;30.03;;;16.67;;
16522;SDS011;19889;52.546;13.348;2022-12-05T13:48:20;36.80;;;17.70;;
16522;SDS011;19889;52.546;13.348;2022-12-05T13:50:52;32.63;;;16.23;;
16522;SDS011;19889;52.546;13.348;2022-12-05T13:53:24;28.87;;;16.57;;
16522;SDS011;19889;52.546;13.348;2022-12-05T13:55:57;28.83;;;16.53;;
16522;SDS011;19889;52.546;13.348;2022-12-05T13:58:41;39.03;;;17.70;;
16522;SDS011;19889;52.546;13.348;2022-12-05T14:04:38;33.60;;;17.73;;
16522;SDS011;19889;52.546;13.348;2022-12-05T14:07:11;35.60;;;17.00;;
16522;SDS011;19889;52.546;13.348;2022-12-05T14:09:58;31.30;;;16.13;;
16522;SDS011;19889;52.546;13.348;2022-12-05T14:12:29;37.13;;;18.10;;
16522;SDS011;19889;52.546;13.348;2022-12-05T14:15:28;36.97;;;18.47;;
16522;SDS011;19889;52.546;13.348;2022-12-05T14:18:09;37.23;;;17.50;;
16522;SDS011;19889;52.546;13.348;2022-12-05T14:20:46;42.37;;;18.77;;
16522;SDS011;19889;52.546;13.348;2022-12-05T14:23:30;39.53;;;17.83;;
16522;SDS011;19889;52.546;13.348;2022-12-05T14:26:09;39.77;;;19.37;;
16522;SDS011;19889;52.546;13.348;2022-12-05T14:28:51;36.70;;;19.37;;
16522;SDS011;19889;52.546;13.348;2022-12-05T14:31:37;40.87;;;18.00;;
16522;SDS011;19889;52.546;13.348;2022-12-05T14:34:14;47.80;;;21.33;;
16522;SDS011;19889;52.546;13.348;2022-12-05T14:36:54;36.43;;;18.57;;
16522;SDS011;19889;52.546;13.348;2022-12-05T14:39:30;44.60;;;19.37;;
16522;SDS011;19889;52.546;13.348;2022-12-05T14:42:04;39.70;;;17.77;;
16522;SDS011;19889;52.546;13.348;2022-12-05T14:44:45;39.57;;;18.47;;
16522;SDS011;19889;52.546;13.348;2022-12-05T14:47:16;42.87;;;19.30;;